<gpx creator="Cyclotour.ca" version="1.1" xmlns:gpsies="http://www.gpsies.com/GPX/1/0" xmlns:xsi="http://www.w3.org/2001/XMLSchema-instance" xmlns="http://www.topografix.com/GPX/1/1" xsi:schemaLocation="http://www.topografix.com/GPX/1/1 http://www.topografix.com/GPX/1/1/gpx.xsd http://www.gpsies.com/GPX/1/0 http://www.gpsies.com/gpsies.xsd">
<trk>
<name>Jour 1: Parcours du Grand Tronc / St Antoine de Tilly/Le Terroir</name>
<trkseg>
<trkpt lat="46.651620000" lon="-71.558700000">
<ele>0</ele>
<time>2026-09-04T06:24:57Z</time>
</trkpt>
<trkpt lat="46.651170000" lon="-71.560740000">
<ele>0</ele>
<time>2026-09-04T06:24:58Z</time>
</trkpt>
<trkpt lat="46.650960000" lon="-71.561440000">
<ele>0</ele>
<time>2026-09-04T06:24:59Z</time>
</trkpt>
<trkpt lat="46.650770000" lon="-71.561980000">
<ele>0</ele>
<time>2026-09-04T06:25:00Z</time>
</trkpt>
<trkpt lat="46.650520000" lon="-71.562530000">
<ele>0</ele>
<time>2026-09-04T06:25:01Z</time>
</trkpt>
<trkpt lat="46.650050000" lon="-71.563540000">
<ele>0</ele>
<time>2026-09-04T06:25:02Z</time>
</trkpt>
<trkpt lat="46.649790000" lon="-71.564090000">
<ele>0</ele>
<time>2026-09-04T06:25:03Z</time>
</trkpt>
<trkpt lat="46.649440000" lon="-71.564860000">
<ele>0</ele>
<time>2026-09-04T06:25:04Z</time>
</trkpt>
<trkpt lat="46.649230000" lon="-71.565390000">
<ele>0</ele>
<time>2026-09-04T06:25:05Z</time>
</trkpt>
<trkpt lat="46.649040000" lon="-71.565840000">
<ele>0</ele>
<time>2026-09-04T06:25:06Z</time>
</trkpt>
<trkpt lat="46.648740000" lon="-71.566430000">
<ele>0</ele>
<time>2026-09-04T06:25:07Z</time>
</trkpt>
<trkpt lat="46.648530000" lon="-71.566780000">
<ele>0</ele>
<time>2026-09-04T06:25:08Z</time>
</trkpt>
<trkpt lat="46.648310000" lon="-71.567090000">
<ele>0</ele>
<time>2026-09-04T06:25:09Z</time>
</trkpt>
<trkpt lat="46.647990000" lon="-71.567470000">
<ele>0</ele>
<time>2026-09-04T06:25:10Z</time>
</trkpt>
<trkpt lat="46.647670000" lon="-71.567810000">
<ele>0</ele>
<time>2026-09-04T06:25:11Z</time>
</trkpt>
<trkpt lat="46.647440000" lon="-71.568000000">
<ele>0</ele>
<time>2026-09-04T06:25:12Z</time>
</trkpt>
<trkpt lat="46.647230000" lon="-71.568130000">
<ele>0</ele>
<time>2026-09-04T06:25:13Z</time>
</trkpt>
<trkpt lat="46.646980000" lon="-71.568250000">
<ele>0</ele>
<time>2026-09-04T06:25:14Z</time>
</trkpt>
<trkpt lat="46.646680000" lon="-71.568340000">
<ele>0</ele>
<time>2026-09-04T06:25:15Z</time>
</trkpt>
<trkpt lat="46.646080000" lon="-71.568430000">
<ele>0</ele>
<time>2026-09-04T06:25:16Z</time>
</trkpt>
<trkpt lat="46.645710000" lon="-71.568460000">
<ele>0</ele>
<time>2026-09-04T06:25:17Z</time>
</trkpt>
<trkpt lat="46.645500000" lon="-71.568490000">
<ele>0</ele>
<time>2026-09-04T06:25:18Z</time>
</trkpt>
<trkpt lat="46.645250000" lon="-71.568560000">
<ele>0</ele>
<time>2026-09-04T06:25:19Z</time>
</trkpt>
<trkpt lat="46.645040000" lon="-71.568660000">
<ele>0</ele>
<time>2026-09-04T06:25:20Z</time>
</trkpt>
<trkpt lat="46.644760000" lon="-71.568860000">
<ele>0</ele>
<time>2026-09-04T06:25:21Z</time>
</trkpt>
<trkpt lat="46.644490000" lon="-71.569160000">
<ele>0</ele>
<time>2026-09-04T06:25:22Z</time>
</trkpt>
<trkpt lat="46.643040000" lon="-71.570840000">
<ele>0</ele>
<time>2026-09-04T06:25:23Z</time>
</trkpt>
<trkpt lat="46.642300000" lon="-71.571670000">
<ele>0</ele>
<time>2026-09-04T06:25:24Z</time>
</trkpt>
<trkpt lat="46.642090000" lon="-71.571910000">
<ele>0</ele>
<time>2026-09-04T06:25:25Z</time>
</trkpt>
<trkpt lat="46.641820000" lon="-71.572180000">
<ele>0</ele>
<time>2026-09-04T06:25:26Z</time>
</trkpt>
<trkpt lat="46.641300000" lon="-71.572530000">
<ele>0</ele>
<time>2026-09-04T06:25:27Z</time>
</trkpt>
<trkpt lat="46.640920000" lon="-71.572760000">
<ele>0</ele>
<time>2026-09-04T06:25:28Z</time>
</trkpt>
<trkpt lat="46.640130000" lon="-71.573230000">
<ele>0</ele>
<time>2026-09-04T06:25:29Z</time>
</trkpt>
<trkpt lat="46.639530000" lon="-71.573630000">
<ele>0</ele>
<time>2026-09-04T06:25:30Z</time>
</trkpt>
<trkpt lat="46.638900000" lon="-71.573930000">
<ele>0</ele>
<time>2026-09-04T06:25:31Z</time>
</trkpt>
<trkpt lat="46.638450000" lon="-71.574150000">
<ele>0</ele>
<time>2026-09-04T06:25:32Z</time>
</trkpt>
<trkpt lat="46.637450000" lon="-71.574720000">
<ele>0</ele>
<time>2026-09-04T06:25:33Z</time>
</trkpt>
<trkpt lat="46.636810000" lon="-71.575200000">
<ele>0</ele>
<time>2026-09-04T06:25:34Z</time>
</trkpt>
<trkpt lat="46.636100000" lon="-71.575740000">
<ele>0</ele>
<time>2026-09-04T06:25:35Z</time>
</trkpt>
<trkpt lat="46.634890000" lon="-71.576620000">
<ele>0</ele>
<time>2026-09-04T06:25:36Z</time>
</trkpt>
<trkpt lat="46.634720000" lon="-71.576770000">
<ele>0</ele>
<time>2026-09-04T06:25:37Z</time>
</trkpt>
<trkpt lat="46.634400000" lon="-71.577080000">
<ele>0</ele>
<time>2026-09-04T06:25:38Z</time>
</trkpt>
<trkpt lat="46.634150000" lon="-71.577400000">
<ele>0</ele>
<time>2026-09-04T06:25:39Z</time>
</trkpt>
<trkpt lat="46.633840000" lon="-71.577910000">
<ele>0</ele>
<time>2026-09-04T06:25:40Z</time>
</trkpt>
<trkpt lat="46.632110000" lon="-71.580610000">
<ele>0</ele>
<time>2026-09-04T06:25:41Z</time>
</trkpt>
<trkpt lat="46.631010000" lon="-71.582330000">
<ele>0</ele>
<time>2026-09-04T06:25:42Z</time>
</trkpt>
<trkpt lat="46.630510000" lon="-71.583080000">
<ele>0</ele>
<time>2026-09-04T06:25:43Z</time>
</trkpt>
<trkpt lat="46.629960000" lon="-71.583940000">
<ele>0</ele>
<time>2026-09-04T06:25:44Z</time>
</trkpt>
<trkpt lat="46.629570000" lon="-71.584650000">
<ele>0</ele>
<time>2026-09-04T06:25:45Z</time>
</trkpt>
<trkpt lat="46.629420000" lon="-71.584920000">
<ele>0</ele>
<time>2026-09-04T06:25:46Z</time>
</trkpt>
<trkpt lat="46.629220000" lon="-71.585360000">
<ele>0</ele>
<time>2026-09-04T06:25:47Z</time>
</trkpt>
<trkpt lat="46.628980000" lon="-71.586170000">
<ele>0</ele>
<time>2026-09-04T06:25:48Z</time>
</trkpt>
<trkpt lat="46.628850000" lon="-71.586710000">
<ele>0</ele>
<time>2026-09-04T06:25:49Z</time>
</trkpt>
<trkpt lat="46.628490000" lon="-71.588240000">
<ele>0</ele>
<time>2026-09-04T06:25:50Z</time>
</trkpt>
<trkpt lat="46.628220000" lon="-71.589300000">
<ele>0</ele>
<time>2026-09-04T06:25:51Z</time>
</trkpt>
<trkpt lat="46.627900000" lon="-71.590400000">
<ele>0</ele>
<time>2026-09-04T06:25:52Z</time>
</trkpt>
<trkpt lat="46.627830000" lon="-71.590800000">
<ele>0</ele>
<time>2026-09-04T06:25:53Z</time>
</trkpt>
<trkpt lat="46.627800000" lon="-71.591460000">
<ele>0</ele>
<time>2026-09-04T06:25:54Z</time>
</trkpt>
<trkpt lat="46.627810000" lon="-71.592480000">
<ele>0</ele>
<time>2026-09-04T06:25:55Z</time>
</trkpt>
<trkpt lat="46.627800000" lon="-71.593360000">
<ele>0</ele>
<time>2026-09-04T06:25:56Z</time>
</trkpt>
<trkpt lat="46.627790000" lon="-71.593820000">
<ele>0</ele>
<time>2026-09-04T06:25:57Z</time>
</trkpt>
<trkpt lat="46.627750000" lon="-71.594250000">
<ele>0</ele>
<time>2026-09-04T06:25:58Z</time>
</trkpt>
<trkpt lat="46.627640000" lon="-71.594940000">
<ele>0</ele>
<time>2026-09-04T06:25:59Z</time>
</trkpt>
<trkpt lat="46.627430000" lon="-71.595730000">
<ele>0</ele>
<time>2026-09-04T06:26:00Z</time>
</trkpt>
<trkpt lat="46.627280000" lon="-71.596160000">
<ele>0</ele>
<time>2026-09-04T06:26:01Z</time>
</trkpt>
<trkpt lat="46.627070000" lon="-71.596620000">
<ele>0</ele>
<time>2026-09-04T06:26:02Z</time>
</trkpt>
<trkpt lat="46.626340000" lon="-71.597870000">
<ele>0</ele>
<time>2026-09-04T06:26:03Z</time>
</trkpt>
<trkpt lat="46.625660000" lon="-71.598870000">
<ele>0</ele>
<time>2026-09-04T06:26:04Z</time>
</trkpt>
<trkpt lat="46.625060000" lon="-71.599810000">
<ele>0</ele>
<time>2026-09-04T06:26:05Z</time>
</trkpt>
<trkpt lat="46.624740000" lon="-71.600410000">
<ele>0</ele>
<time>2026-09-04T06:26:06Z</time>
</trkpt>
<trkpt lat="46.624170000" lon="-71.601420000">
<ele>0</ele>
<time>2026-09-04T06:26:07Z</time>
</trkpt>
<trkpt lat="46.622800000" lon="-71.603790000">
<ele>0</ele>
<time>2026-09-04T06:26:08Z</time>
</trkpt>
<trkpt lat="46.622380000" lon="-71.604540000">
<ele>0</ele>
<time>2026-09-04T06:26:09Z</time>
</trkpt>
<trkpt lat="46.622170000" lon="-71.604850000">
<ele>0</ele>
<time>2026-09-04T06:26:10Z</time>
</trkpt>
<trkpt lat="46.621980000" lon="-71.605200000">
<ele>0</ele>
<time>2026-09-04T06:26:11Z</time>
</trkpt>
<trkpt lat="46.621090000" lon="-71.606310000">
<ele>0</ele>
<time>2026-09-04T06:26:12Z</time>
</trkpt>
<trkpt lat="46.620310000" lon="-71.607190000">
<ele>0</ele>
<time>2026-09-04T06:26:13Z</time>
</trkpt>
<trkpt lat="46.619870000" lon="-71.607540000">
<ele>0</ele>
<time>2026-09-04T06:26:14Z</time>
</trkpt>
<trkpt lat="46.619130000" lon="-71.607920000">
<ele>0</ele>
<time>2026-09-04T06:26:15Z</time>
</trkpt>
<trkpt lat="46.618170000" lon="-71.608490000">
<ele>0</ele>
<time>2026-09-04T06:26:16Z</time>
</trkpt>
<trkpt lat="46.618010000" lon="-71.608650000">
<ele>0</ele>
<time>2026-09-04T06:26:17Z</time>
</trkpt>
<trkpt lat="46.616820000" lon="-71.609790000">
<ele>0</ele>
<time>2026-09-04T06:26:18Z</time>
</trkpt>
<trkpt lat="46.616490000" lon="-71.610320000">
<ele>0</ele>
<time>2026-09-04T06:26:19Z</time>
</trkpt>
<trkpt lat="46.616120000" lon="-71.611040000">
<ele>0</ele>
<time>2026-09-04T06:26:20Z</time>
</trkpt>
<trkpt lat="46.615430000" lon="-71.612160000">
<ele>0</ele>
<time>2026-09-04T06:26:21Z</time>
</trkpt>
<trkpt lat="46.615060000" lon="-71.612790000">
<ele>0</ele>
<time>2026-09-04T06:26:22Z</time>
</trkpt>
<trkpt lat="46.614450000" lon="-71.613820000">
<ele>0</ele>
<time>2026-09-04T06:26:23Z</time>
</trkpt>
<trkpt lat="46.613760000" lon="-71.614990000">
<ele>0</ele>
<time>2026-09-04T06:26:24Z</time>
</trkpt>
<trkpt lat="46.612250000" lon="-71.617630000">
<ele>0</ele>
<time>2026-09-04T06:26:25Z</time>
</trkpt>
<trkpt lat="46.612030000" lon="-71.618020000">
<ele>0</ele>
<time>2026-09-04T06:26:26Z</time>
</trkpt>
<trkpt lat="46.611820000" lon="-71.618330000">
<ele>0</ele>
<time>2026-09-04T06:26:27Z</time>
</trkpt>
<trkpt lat="46.611470000" lon="-71.618700000">
<ele>0</ele>
<time>2026-09-04T06:26:28Z</time>
</trkpt>
<trkpt lat="46.611190000" lon="-71.618910000">
<ele>0</ele>
<time>2026-09-04T06:26:29Z</time>
</trkpt>
<trkpt lat="46.610790000" lon="-71.619160000">
<ele>0</ele>
<time>2026-09-04T06:26:30Z</time>
</trkpt>
<trkpt lat="46.610490000" lon="-71.619360000">
<ele>0</ele>
<time>2026-09-04T06:26:31Z</time>
</trkpt>
<trkpt lat="46.610150000" lon="-71.619620000">
<ele>0</ele>
<time>2026-09-04T06:26:32Z</time>
</trkpt>
<trkpt lat="46.608800000" lon="-71.620880000">
<ele>0</ele>
<time>2026-09-04T06:26:33Z</time>
</trkpt>
<trkpt lat="46.608270000" lon="-71.621360000">
<ele>0</ele>
<time>2026-09-04T06:26:34Z</time>
</trkpt>
<trkpt lat="46.607650000" lon="-71.622000000">
<ele>0</ele>
<time>2026-09-04T06:26:35Z</time>
</trkpt>
<trkpt lat="46.607320000" lon="-71.622440000">
<ele>0</ele>
<time>2026-09-04T06:26:36Z</time>
</trkpt>
<trkpt lat="46.606350000" lon="-71.623980000">
<ele>0</ele>
<time>2026-09-04T06:26:37Z</time>
</trkpt>
<trkpt lat="46.605540000" lon="-71.625300000">
<ele>0</ele>
<time>2026-09-04T06:26:38Z</time>
</trkpt>
<trkpt lat="46.604490000" lon="-71.626880000">
<ele>0</ele>
<time>2026-09-04T06:26:39Z</time>
</trkpt>
<trkpt lat="46.603760000" lon="-71.628040000">
<ele>0</ele>
<time>2026-09-04T06:26:40Z</time>
</trkpt>
<trkpt lat="46.603500000" lon="-71.628460000">
<ele>0</ele>
<time>2026-09-04T06:26:41Z</time>
</trkpt>
<trkpt lat="46.602860000" lon="-71.629680000">
<ele>0</ele>
<time>2026-09-04T06:26:42Z</time>
</trkpt>
<trkpt lat="46.602300000" lon="-71.630690000">
<ele>0</ele>
<time>2026-09-04T06:26:43Z</time>
</trkpt>
<trkpt lat="46.601910000" lon="-71.631320000">
<ele>0</ele>
<time>2026-09-04T06:26:44Z</time>
</trkpt>
<trkpt lat="46.601740000" lon="-71.631720000">
<ele>0</ele>
<time>2026-09-04T06:26:45Z</time>
</trkpt>
<trkpt lat="46.601580000" lon="-71.632180000">
<ele>0</ele>
<time>2026-09-04T06:26:46Z</time>
</trkpt>
<trkpt lat="46.601490000" lon="-71.632510000">
<ele>0</ele>
<time>2026-09-04T06:26:47Z</time>
</trkpt>
<trkpt lat="46.601300000" lon="-71.633540000">
<ele>0</ele>
<time>2026-09-04T06:26:48Z</time>
</trkpt>
<trkpt lat="46.601010000" lon="-71.634980000">
<ele>0</ele>
<time>2026-09-04T06:26:49Z</time>
</trkpt>
<trkpt lat="46.600880000" lon="-71.635670000">
<ele>0</ele>
<time>2026-09-04T06:26:50Z</time>
</trkpt>
<trkpt lat="46.600590000" lon="-71.637190000">
<ele>0</ele>
<time>2026-09-04T06:26:51Z</time>
</trkpt>
<trkpt lat="46.600350000" lon="-71.638300000">
<ele>0</ele>
<time>2026-09-04T06:26:52Z</time>
</trkpt>
<trkpt lat="46.600060000" lon="-71.639800000">
<ele>0</ele>
<time>2026-09-04T06:26:53Z</time>
</trkpt>
<trkpt lat="46.599890000" lon="-71.640920000">
<ele>0</ele>
<time>2026-09-04T06:26:54Z</time>
</trkpt>
<trkpt lat="46.599370000" lon="-71.643760000">
<ele>0</ele>
<time>2026-09-04T06:26:55Z</time>
</trkpt>
<trkpt lat="46.599160000" lon="-71.644770000">
<ele>0</ele>
<time>2026-09-04T06:26:56Z</time>
</trkpt>
<trkpt lat="46.598920000" lon="-71.645790000">
<ele>0</ele>
<time>2026-09-04T06:26:57Z</time>
</trkpt>
<trkpt lat="46.598440000" lon="-71.647350000">
<ele>0</ele>
<time>2026-09-04T06:26:58Z</time>
</trkpt>
<trkpt lat="46.598150000" lon="-71.648520000">
<ele>0</ele>
<time>2026-09-04T06:26:59Z</time>
</trkpt>
<trkpt lat="46.597860000" lon="-71.649720000">
<ele>0</ele>
<time>2026-09-04T06:27:00Z</time>
</trkpt>
<trkpt lat="46.597710000" lon="-71.650450000">
<ele>0</ele>
<time>2026-09-04T06:27:01Z</time>
</trkpt>
<trkpt lat="46.597620000" lon="-71.651080000">
<ele>0</ele>
<time>2026-09-04T06:27:02Z</time>
</trkpt>
<trkpt lat="46.597530000" lon="-71.652010000">
<ele>0</ele>
<time>2026-09-04T06:27:03Z</time>
</trkpt>
<trkpt lat="46.597430000" lon="-71.653060000">
<ele>0</ele>
<time>2026-09-04T06:27:04Z</time>
</trkpt>
<trkpt lat="46.597310000" lon="-71.654670000">
<ele>0</ele>
<time>2026-09-04T06:27:05Z</time>
</trkpt>
<trkpt lat="46.597290000" lon="-71.655350000">
<ele>0</ele>
<time>2026-09-04T06:27:06Z</time>
</trkpt>
<trkpt lat="46.597320000" lon="-71.656030000">
<ele>0</ele>
<time>2026-09-04T06:27:07Z</time>
</trkpt>
<trkpt lat="46.597430000" lon="-71.657170000">
<ele>0</ele>
<time>2026-09-04T06:27:08Z</time>
</trkpt>
<trkpt lat="46.597580000" lon="-71.658570000">
<ele>0</ele>
<time>2026-09-04T06:27:09Z</time>
</trkpt>
<trkpt lat="46.597740000" lon="-71.659990000">
<ele>0</ele>
<time>2026-09-04T06:27:10Z</time>
</trkpt>
<trkpt lat="46.597740000" lon="-71.660450000">
<ele>0</ele>
<time>2026-09-04T06:27:11Z</time>
</trkpt>
<trkpt lat="46.597660000" lon="-71.661010000">
<ele>0</ele>
<time>2026-09-04T06:27:12Z</time>
</trkpt>
<trkpt lat="46.597490000" lon="-71.662310000">
<ele>0</ele>
<time>2026-09-04T06:27:13Z</time>
</trkpt>
<trkpt lat="46.597370000" lon="-71.663310000">
<ele>0</ele>
<time>2026-09-04T06:27:14Z</time>
</trkpt>
<trkpt lat="46.596930000" lon="-71.667310000">
<ele>0</ele>
<time>2026-09-04T06:27:15Z</time>
</trkpt>
<trkpt lat="46.596930000" lon="-71.667550000">
<ele>0</ele>
<time>2026-09-04T06:27:16Z</time>
</trkpt>
<trkpt lat="46.596940000" lon="-71.667660000">
<ele>0</ele>
<time>2026-09-04T06:27:17Z</time>
</trkpt>
<trkpt lat="46.597010000" lon="-71.667790000">
<ele>0</ele>
<time>2026-09-04T06:27:18Z</time>
</trkpt>
<trkpt lat="46.597080000" lon="-71.667880000">
<ele>0</ele>
<time>2026-09-04T06:27:19Z</time>
</trkpt>
<trkpt lat="46.597080000" lon="-71.667880000">
<ele>0</ele>
<time>2026-09-04T06:27:20Z</time>
</trkpt>
<trkpt lat="46.597800000" lon="-71.668850000">
<ele>0</ele>
<time>2026-09-04T06:27:21Z</time>
</trkpt>
<trkpt lat="46.598290000" lon="-71.669510000">
<ele>0</ele>
<time>2026-09-04T06:27:22Z</time>
</trkpt>
<trkpt lat="46.600000000" lon="-71.671840000">
<ele>0</ele>
<time>2026-09-04T06:27:23Z</time>
</trkpt>
<trkpt lat="46.600500000" lon="-71.672580000">
<ele>0</ele>
<time>2026-09-04T06:27:24Z</time>
</trkpt>
<trkpt lat="46.600580000" lon="-71.672710000">
<ele>0</ele>
<time>2026-09-04T06:27:25Z</time>
</trkpt>
<trkpt lat="46.600560000" lon="-71.672980000">
<ele>0</ele>
<time>2026-09-04T06:27:26Z</time>
</trkpt>
<trkpt lat="46.600560000" lon="-71.672980000">
<ele>0</ele>
<time>2026-09-04T06:27:27Z</time>
</trkpt>
<trkpt lat="46.600460000" lon="-71.675060000">
<ele>0</ele>
<time>2026-09-04T06:27:28Z</time>
</trkpt>
<trkpt lat="46.600420000" lon="-71.675840000">
<ele>0</ele>
<time>2026-09-04T06:27:29Z</time>
</trkpt>
<trkpt lat="46.600380000" lon="-71.676880000">
<ele>0</ele>
<time>2026-09-04T06:27:30Z</time>
</trkpt>
<trkpt lat="46.600370000" lon="-71.678190000">
<ele>0</ele>
<time>2026-09-04T06:27:31Z</time>
</trkpt>
<trkpt lat="46.600260000" lon="-71.680830000">
<ele>0</ele>
<time>2026-09-04T06:27:32Z</time>
</trkpt>
<trkpt lat="46.600160000" lon="-71.683350000">
<ele>0</ele>
<time>2026-09-04T06:27:33Z</time>
</trkpt>
<trkpt lat="46.600090000" lon="-71.684650000">
<ele>0</ele>
<time>2026-09-04T06:27:34Z</time>
</trkpt>
<trkpt lat="46.600010000" lon="-71.685230000">
<ele>0</ele>
<time>2026-09-04T06:27:35Z</time>
</trkpt>
<trkpt lat="46.599960000" lon="-71.685480000">
<ele>0</ele>
<time>2026-09-04T06:27:36Z</time>
</trkpt>
<trkpt lat="46.599820000" lon="-71.686210000">
<ele>0</ele>
<time>2026-09-04T06:27:37Z</time>
</trkpt>
<trkpt lat="46.599760000" lon="-71.686570000">
<ele>0</ele>
<time>2026-09-04T06:27:38Z</time>
</trkpt>
<trkpt lat="46.599730000" lon="-71.687040000">
<ele>0</ele>
<time>2026-09-04T06:27:39Z</time>
</trkpt>
<trkpt lat="46.599730000" lon="-71.687570000">
<ele>0</ele>
<time>2026-09-04T06:27:40Z</time>
</trkpt>
<trkpt lat="46.599810000" lon="-71.691940000">
<ele>0</ele>
<time>2026-09-04T06:27:41Z</time>
</trkpt>
<trkpt lat="46.599890000" lon="-71.696320000">
<ele>0</ele>
<time>2026-09-04T06:27:42Z</time>
</trkpt>
<trkpt lat="46.600000000" lon="-71.702860000">
<ele>0</ele>
<time>2026-09-04T06:27:43Z</time>
</trkpt>
<trkpt lat="46.600020000" lon="-71.705460000">
<ele>0</ele>
<time>2026-09-04T06:27:44Z</time>
</trkpt>
<trkpt lat="46.600130000" lon="-71.708360000">
<ele>0</ele>
<time>2026-09-04T06:27:45Z</time>
</trkpt>
<trkpt lat="46.600150000" lon="-71.708750000">
<ele>0</ele>
<time>2026-09-04T06:27:46Z</time>
</trkpt>
<trkpt lat="46.600140000" lon="-71.709070000">
<ele>0</ele>
<time>2026-09-04T06:27:47Z</time>
</trkpt>
<trkpt lat="46.600040000" lon="-71.709650000">
<ele>0</ele>
<time>2026-09-04T06:27:48Z</time>
</trkpt>
<trkpt lat="46.599850000" lon="-71.710510000">
<ele>0</ele>
<time>2026-09-04T06:27:49Z</time>
</trkpt>
<trkpt lat="46.599940000" lon="-71.710610000">
<ele>0</ele>
<time>2026-09-04T06:27:50Z</time>
</trkpt>
<trkpt lat="46.599940000" lon="-71.710610000">
<ele>0</ele>
<time>2026-09-04T06:27:51Z</time>
</trkpt>
<trkpt lat="46.600120000" lon="-71.710820000">
<ele>0</ele>
<time>2026-09-04T06:27:52Z</time>
</trkpt>
<trkpt lat="46.600450000" lon="-71.711130000">
<ele>0</ele>
<time>2026-09-04T06:27:53Z</time>
</trkpt>
<trkpt lat="46.600570000" lon="-71.711250000">
<ele>0</ele>
<time>2026-09-04T06:27:54Z</time>
</trkpt>
<trkpt lat="46.600840000" lon="-71.711390000">
<ele>0</ele>
<time>2026-09-04T06:27:55Z</time>
</trkpt>
<trkpt lat="46.602070000" lon="-71.712200000">
<ele>0</ele>
<time>2026-09-04T06:27:56Z</time>
</trkpt>
<trkpt lat="46.602650000" lon="-71.712600000">
<ele>0</ele>
<time>2026-09-04T06:27:57Z</time>
</trkpt>
<trkpt lat="46.603010000" lon="-71.712910000">
<ele>0</ele>
<time>2026-09-04T06:27:58Z</time>
</trkpt>
<trkpt lat="46.603250000" lon="-71.713150000">
<ele>0</ele>
<time>2026-09-04T06:27:59Z</time>
</trkpt>
<trkpt lat="46.603740000" lon="-71.713780000">
<ele>0</ele>
<time>2026-09-04T06:28:00Z</time>
</trkpt>
<trkpt lat="46.605280000" lon="-71.715880000">
<ele>0</ele>
<time>2026-09-04T06:28:01Z</time>
</trkpt>
<trkpt lat="46.607290000" lon="-71.718590000">
<ele>0</ele>
<time>2026-09-04T06:28:02Z</time>
</trkpt>
<trkpt lat="46.607470000" lon="-71.718800000">
<ele>0</ele>
<time>2026-09-04T06:28:03Z</time>
</trkpt>
<trkpt lat="46.607680000" lon="-71.719000000">
<ele>0</ele>
<time>2026-09-04T06:28:04Z</time>
</trkpt>
<trkpt lat="46.607940000" lon="-71.719150000">
<ele>0</ele>
<time>2026-09-04T06:28:05Z</time>
</trkpt>
<trkpt lat="46.608090000" lon="-71.719210000">
<ele>0</ele>
<time>2026-09-04T06:28:06Z</time>
</trkpt>
<trkpt lat="46.608370000" lon="-71.719280000">
<ele>0</ele>
<time>2026-09-04T06:28:07Z</time>
</trkpt>
<trkpt lat="46.608480000" lon="-71.719290000">
<ele>0</ele>
<time>2026-09-04T06:28:08Z</time>
</trkpt>
<trkpt lat="46.608780000" lon="-71.719290000">
<ele>0</ele>
<time>2026-09-04T06:28:09Z</time>
</trkpt>
<trkpt lat="46.609050000" lon="-71.719210000">
<ele>0</ele>
<time>2026-09-04T06:28:10Z</time>
</trkpt>
<trkpt lat="46.609270000" lon="-71.719110000">
<ele>0</ele>
<time>2026-09-04T06:28:11Z</time>
</trkpt>
<trkpt lat="46.609500000" lon="-71.718970000">
<ele>0</ele>
<time>2026-09-04T06:28:12Z</time>
</trkpt>
<trkpt lat="46.609760000" lon="-71.718760000">
<ele>0</ele>
<time>2026-09-04T06:28:13Z</time>
</trkpt>
<trkpt lat="46.610440000" lon="-71.718180000">
<ele>0</ele>
<time>2026-09-04T06:28:14Z</time>
</trkpt>
<trkpt lat="46.610740000" lon="-71.717960000">
<ele>0</ele>
<time>2026-09-04T06:28:15Z</time>
</trkpt>
<trkpt lat="46.610920000" lon="-71.717860000">
<ele>0</ele>
<time>2026-09-04T06:28:16Z</time>
</trkpt>
<trkpt lat="46.611190000" lon="-71.717760000">
<ele>0</ele>
<time>2026-09-04T06:28:17Z</time>
</trkpt>
<trkpt lat="46.611440000" lon="-71.717720000">
<ele>0</ele>
<time>2026-09-04T06:28:18Z</time>
</trkpt>
<trkpt lat="46.611760000" lon="-71.717730000">
<ele>0</ele>
<time>2026-09-04T06:28:19Z</time>
</trkpt>
<trkpt lat="46.612190000" lon="-71.717860000">
<ele>0</ele>
<time>2026-09-04T06:28:20Z</time>
</trkpt>
<trkpt lat="46.612590000" lon="-71.718170000">
<ele>0</ele>
<time>2026-09-04T06:28:21Z</time>
</trkpt>
<trkpt lat="46.612740000" lon="-71.718320000">
<ele>0</ele>
<time>2026-09-04T06:28:22Z</time>
</trkpt>
<trkpt lat="46.612950000" lon="-71.718570000">
<ele>0</ele>
<time>2026-09-04T06:28:23Z</time>
</trkpt>
<trkpt lat="46.613690000" lon="-71.719590000">
<ele>0</ele>
<time>2026-09-04T06:28:24Z</time>
</trkpt>
<trkpt lat="46.613940000" lon="-71.719940000">
<ele>0</ele>
<time>2026-09-04T06:28:25Z</time>
</trkpt>
<trkpt lat="46.613940000" lon="-71.719940000">
<ele>0</ele>
<time>2026-09-04T06:28:26Z</time>
</trkpt>
<trkpt lat="46.620060000" lon="-71.728420000">
<ele>0</ele>
<time>2026-09-04T06:28:27Z</time>
</trkpt>
<trkpt lat="46.622360000" lon="-71.731590000">
<ele>0</ele>
<time>2026-09-04T06:28:28Z</time>
</trkpt>
<trkpt lat="46.623360000" lon="-71.733000000">
<ele>0</ele>
<time>2026-09-04T06:28:29Z</time>
</trkpt>
<trkpt lat="46.623660000" lon="-71.733390000">
<ele>0</ele>
<time>2026-09-04T06:28:30Z</time>
</trkpt>
<trkpt lat="46.623610000" lon="-71.733610000">
<ele>0</ele>
<time>2026-09-04T06:28:31Z</time>
</trkpt>
<trkpt lat="46.623610000" lon="-71.733610000">
<ele>0</ele>
<time>2026-09-04T06:28:32Z</time>
</trkpt>
<trkpt lat="46.623220000" lon="-71.734850000">
<ele>0</ele>
<time>2026-09-04T06:28:33Z</time>
</trkpt>
<trkpt lat="46.623050000" lon="-71.735610000">
<ele>0</ele>
<time>2026-09-04T06:28:34Z</time>
</trkpt>
<trkpt lat="46.622930000" lon="-71.736440000">
<ele>0</ele>
<time>2026-09-04T06:28:35Z</time>
</trkpt>
<trkpt lat="46.622780000" lon="-71.737150000">
<ele>0</ele>
<time>2026-09-04T06:28:36Z</time>
</trkpt>
<trkpt lat="46.622730000" lon="-71.737630000">
<ele>0</ele>
<time>2026-09-04T06:28:37Z</time>
</trkpt>
<trkpt lat="46.622690000" lon="-71.738140000">
<ele>0</ele>
<time>2026-09-04T06:28:38Z</time>
</trkpt>
<trkpt lat="46.622670000" lon="-71.739050000">
<ele>0</ele>
<time>2026-09-04T06:28:39Z</time>
</trkpt>
<trkpt lat="46.622660000" lon="-71.739430000">
<ele>0</ele>
<time>2026-09-04T06:28:40Z</time>
</trkpt>
<trkpt lat="46.622790000" lon="-71.739430000">
<ele>0</ele>
<time>2026-09-04T06:28:41Z</time>
</trkpt>
<trkpt lat="46.622790000" lon="-71.739430000">
<ele>0</ele>
<time>2026-09-04T06:28:42Z</time>
</trkpt>
<trkpt lat="46.623560000" lon="-71.739450000">
<ele>0</ele>
<time>2026-09-04T06:28:43Z</time>
</trkpt>
<trkpt lat="46.623640000" lon="-71.739470000">
<ele>0</ele>
<time>2026-09-04T06:28:44Z</time>
</trkpt>
<trkpt lat="46.623720000" lon="-71.739520000">
<ele>0</ele>
<time>2026-09-04T06:28:45Z</time>
</trkpt>
<trkpt lat="46.623800000" lon="-71.739610000">
<ele>0</ele>
<time>2026-09-04T06:28:46Z</time>
</trkpt>
<trkpt lat="46.624090000" lon="-71.740060000">
<ele>0</ele>
<time>2026-09-04T06:28:47Z</time>
</trkpt>
<trkpt lat="46.625390000" lon="-71.741870000">
<ele>0</ele>
<time>2026-09-04T06:28:48Z</time>
</trkpt>
<trkpt lat="46.625620000" lon="-71.742200000">
<ele>0</ele>
<time>2026-09-04T06:28:49Z</time>
</trkpt>
<trkpt lat="46.625530000" lon="-71.742330000">
<ele>0</ele>
<time>2026-09-04T06:28:50Z</time>
</trkpt>
<trkpt lat="46.625530000" lon="-71.742330000">
<ele>0</ele>
<time>2026-09-04T06:28:51Z</time>
</trkpt>
<trkpt lat="46.625360000" lon="-71.742600000">
<ele>0</ele>
<time>2026-09-04T06:28:52Z</time>
</trkpt>
<trkpt lat="46.625320000" lon="-71.742720000">
<ele>0</ele>
<time>2026-09-04T06:28:53Z</time>
</trkpt>
<trkpt lat="46.625280000" lon="-71.743020000">
<ele>0</ele>
<time>2026-09-04T06:28:54Z</time>
</trkpt>
<trkpt lat="46.625300000" lon="-71.743170000">
<ele>0</ele>
<time>2026-09-04T06:28:55Z</time>
</trkpt>
<trkpt lat="46.625500000" lon="-71.743590000">
<ele>0</ele>
<time>2026-09-04T06:28:56Z</time>
</trkpt>
<trkpt lat="46.625590000" lon="-71.743910000">
<ele>0</ele>
<time>2026-09-04T06:28:57Z</time>
</trkpt>
<trkpt lat="46.625770000" lon="-71.744330000">
<ele>0</ele>
<time>2026-09-04T06:28:58Z</time>
</trkpt>
<trkpt lat="46.626080000" lon="-71.744790000">
<ele>0</ele>
<time>2026-09-04T06:28:59Z</time>
</trkpt>
<trkpt lat="46.626120000" lon="-71.744900000">
<ele>0</ele>
<time>2026-09-04T06:29:00Z</time>
</trkpt>
<trkpt lat="46.626120000" lon="-71.745020000">
<ele>0</ele>
<time>2026-09-04T06:29:01Z</time>
</trkpt>
<trkpt lat="46.625980000" lon="-71.745240000">
<ele>0</ele>
<time>2026-09-04T06:29:02Z</time>
</trkpt>
<trkpt lat="46.625980000" lon="-71.745240000">
<ele>0</ele>
<time>2026-09-04T06:29:03Z</time>
</trkpt>
<trkpt lat="46.625630000" lon="-71.745730000">
<ele>0</ele>
<time>2026-09-04T06:29:04Z</time>
</trkpt>
<trkpt lat="46.625560000" lon="-71.745640000">
<ele>0</ele>
<time>2026-09-04T06:29:05Z</time>
</trkpt>
<trkpt lat="46.625560000" lon="-71.745640000">
<ele>0</ele>
<time>2026-09-04T06:29:06Z</time>
</trkpt>
<trkpt lat="46.624510000" lon="-71.744230000">
<ele>0</ele>
<time>2026-09-04T06:29:07Z</time>
</trkpt>
<trkpt lat="46.624360000" lon="-71.744060000">
<ele>0</ele>
<time>2026-09-04T06:29:08Z</time>
</trkpt>
<trkpt lat="46.624320000" lon="-71.744010000">
<ele>0</ele>
<time>2026-09-04T06:29:09Z</time>
</trkpt>
<trkpt lat="46.624200000" lon="-71.743970000">
<ele>0</ele>
<time>2026-09-04T06:29:10Z</time>
</trkpt>
<trkpt lat="46.624110000" lon="-71.743960000">
<ele>0</ele>
<time>2026-09-04T06:29:11Z</time>
</trkpt>
<trkpt lat="46.624020000" lon="-71.744000000">
<ele>0</ele>
<time>2026-09-04T06:29:12Z</time>
</trkpt>
<trkpt lat="46.623920000" lon="-71.744040000">
<ele>0</ele>
<time>2026-09-04T06:29:13Z</time>
</trkpt>
<trkpt lat="46.623700000" lon="-71.744170000">
<ele>0</ele>
<time>2026-09-04T06:29:14Z</time>
</trkpt>
<trkpt lat="46.623650000" lon="-71.744010000">
<ele>0</ele>
<time>2026-09-04T06:29:15Z</time>
</trkpt>
<trkpt lat="46.623650000" lon="-71.744010000">
<ele>0</ele>
<time>2026-09-04T06:29:16Z</time>
</trkpt>
<trkpt lat="46.623070000" lon="-71.741980000">
<ele>0</ele>
<time>2026-09-04T06:29:17Z</time>
</trkpt>
<trkpt lat="46.622720000" lon="-71.740860000">
<ele>0</ele>
<time>2026-09-04T06:29:18Z</time>
</trkpt>
<trkpt lat="46.622650000" lon="-71.740430000">
<ele>0</ele>
<time>2026-09-04T06:29:19Z</time>
</trkpt>
<trkpt lat="46.622640000" lon="-71.740190000">
<ele>0</ele>
<time>2026-09-04T06:29:20Z</time>
</trkpt>
<trkpt lat="46.622680000" lon="-71.738340000">
<ele>0</ele>
<time>2026-09-04T06:29:21Z</time>
</trkpt>
<trkpt lat="46.622750000" lon="-71.737330000">
<ele>0</ele>
<time>2026-09-04T06:29:22Z</time>
</trkpt>
<trkpt lat="46.622810000" lon="-71.736960000">
<ele>0</ele>
<time>2026-09-04T06:29:23Z</time>
</trkpt>
<trkpt lat="46.622900000" lon="-71.736600000">
<ele>0</ele>
<time>2026-09-04T06:29:24Z</time>
</trkpt>
<trkpt lat="46.623000000" lon="-71.735890000">
<ele>0</ele>
<time>2026-09-04T06:29:25Z</time>
</trkpt>
<trkpt lat="46.623140000" lon="-71.735150000">
<ele>0</ele>
<time>2026-09-04T06:29:26Z</time>
</trkpt>
<trkpt lat="46.623290000" lon="-71.734580000">
<ele>0</ele>
<time>2026-09-04T06:29:27Z</time>
</trkpt>
<trkpt lat="46.623600000" lon="-71.733640000">
<ele>0</ele>
<time>2026-09-04T06:29:28Z</time>
</trkpt>
<trkpt lat="46.623710000" lon="-71.733110000">
<ele>0</ele>
<time>2026-09-04T06:29:29Z</time>
</trkpt>
<trkpt lat="46.623740000" lon="-71.732770000">
<ele>0</ele>
<time>2026-09-04T06:29:30Z</time>
</trkpt>
<trkpt lat="46.623730000" lon="-71.732440000">
<ele>0</ele>
<time>2026-09-04T06:29:31Z</time>
</trkpt>
<trkpt lat="46.623430000" lon="-71.729700000">
<ele>0</ele>
<time>2026-09-04T06:29:32Z</time>
</trkpt>
<trkpt lat="46.623310000" lon="-71.728600000">
<ele>0</ele>
<time>2026-09-04T06:29:33Z</time>
</trkpt>
<trkpt lat="46.623240000" lon="-71.727200000">
<ele>0</ele>
<time>2026-09-04T06:29:34Z</time>
</trkpt>
<trkpt lat="46.623140000" lon="-71.726060000">
<ele>0</ele>
<time>2026-09-04T06:29:35Z</time>
</trkpt>
<trkpt lat="46.622980000" lon="-71.724870000">
<ele>0</ele>
<time>2026-09-04T06:29:36Z</time>
</trkpt>
<trkpt lat="46.622640000" lon="-71.723050000">
<ele>0</ele>
<time>2026-09-04T06:29:37Z</time>
</trkpt>
<trkpt lat="46.622500000" lon="-71.722300000">
<ele>0</ele>
<time>2026-09-04T06:29:38Z</time>
</trkpt>
<trkpt lat="46.622320000" lon="-71.721180000">
<ele>0</ele>
<time>2026-09-04T06:29:39Z</time>
</trkpt>
<trkpt lat="46.622250000" lon="-71.720340000">
<ele>0</ele>
<time>2026-09-04T06:29:40Z</time>
</trkpt>
<trkpt lat="46.622240000" lon="-71.720090000">
<ele>0</ele>
<time>2026-09-04T06:29:41Z</time>
</trkpt>
<trkpt lat="46.622260000" lon="-71.719440000">
<ele>0</ele>
<time>2026-09-04T06:29:42Z</time>
</trkpt>
<trkpt lat="46.622480000" lon="-71.717400000">
<ele>0</ele>
<time>2026-09-04T06:29:43Z</time>
</trkpt>
<trkpt lat="46.622570000" lon="-71.716420000">
<ele>0</ele>
<time>2026-09-04T06:29:44Z</time>
</trkpt>
<trkpt lat="46.622630000" lon="-71.715090000">
<ele>0</ele>
<time>2026-09-04T06:29:45Z</time>
</trkpt>
<trkpt lat="46.622640000" lon="-71.713460000">
<ele>0</ele>
<time>2026-09-04T06:29:46Z</time>
</trkpt>
<trkpt lat="46.622630000" lon="-71.712440000">
<ele>0</ele>
<time>2026-09-04T06:29:47Z</time>
</trkpt>
<trkpt lat="46.622570000" lon="-71.711070000">
<ele>0</ele>
<time>2026-09-04T06:29:48Z</time>
</trkpt>
<trkpt lat="46.622540000" lon="-71.710300000">
<ele>0</ele>
<time>2026-09-04T06:29:49Z</time>
</trkpt>
<trkpt lat="46.622520000" lon="-71.709420000">
<ele>0</ele>
<time>2026-09-04T06:29:50Z</time>
</trkpt>
<trkpt lat="46.622550000" lon="-71.708650000">
<ele>0</ele>
<time>2026-09-04T06:29:51Z</time>
</trkpt>
<trkpt lat="46.622590000" lon="-71.708260000">
<ele>0</ele>
<time>2026-09-04T06:29:52Z</time>
</trkpt>
<trkpt lat="46.623010000" lon="-71.706070000">
<ele>0</ele>
<time>2026-09-04T06:29:53Z</time>
</trkpt>
<trkpt lat="46.623160000" lon="-71.705270000">
<ele>0</ele>
<time>2026-09-04T06:29:54Z</time>
</trkpt>
<trkpt lat="46.623280000" lon="-71.704350000">
<ele>0</ele>
<time>2026-09-04T06:29:55Z</time>
</trkpt>
<trkpt lat="46.623340000" lon="-71.703590000">
<ele>0</ele>
<time>2026-09-04T06:29:56Z</time>
</trkpt>
<trkpt lat="46.623380000" lon="-71.702730000">
<ele>0</ele>
<time>2026-09-04T06:29:57Z</time>
</trkpt>
<trkpt lat="46.623380000" lon="-71.701700000">
<ele>0</ele>
<time>2026-09-04T06:29:58Z</time>
</trkpt>
<trkpt lat="46.623330000" lon="-71.700580000">
<ele>0</ele>
<time>2026-09-04T06:29:59Z</time>
</trkpt>
<trkpt lat="46.623230000" lon="-71.698730000">
<ele>0</ele>
<time>2026-09-04T06:30:00Z</time>
</trkpt>
<trkpt lat="46.623220000" lon="-71.698200000">
<ele>0</ele>
<time>2026-09-04T06:30:01Z</time>
</trkpt>
<trkpt lat="46.623240000" lon="-71.697710000">
<ele>0</ele>
<time>2026-09-04T06:30:02Z</time>
</trkpt>
<trkpt lat="46.623330000" lon="-71.697180000">
<ele>0</ele>
<time>2026-09-04T06:30:03Z</time>
</trkpt>
<trkpt lat="46.623380000" lon="-71.696930000">
<ele>0</ele>
<time>2026-09-04T06:30:04Z</time>
</trkpt>
<trkpt lat="46.623510000" lon="-71.696520000">
<ele>0</ele>
<time>2026-09-04T06:30:05Z</time>
</trkpt>
<trkpt lat="46.623750000" lon="-71.695940000">
<ele>0</ele>
<time>2026-09-04T06:30:06Z</time>
</trkpt>
<trkpt lat="46.623950000" lon="-71.695590000">
<ele>0</ele>
<time>2026-09-04T06:30:07Z</time>
</trkpt>
<trkpt lat="46.624310000" lon="-71.695010000">
<ele>0</ele>
<time>2026-09-04T06:30:08Z</time>
</trkpt>
<trkpt lat="46.625630000" lon="-71.692810000">
<ele>0</ele>
<time>2026-09-04T06:30:09Z</time>
</trkpt>
<trkpt lat="46.625890000" lon="-71.692310000">
<ele>0</ele>
<time>2026-09-04T06:30:10Z</time>
</trkpt>
<trkpt lat="46.626160000" lon="-71.691700000">
<ele>0</ele>
<time>2026-09-04T06:30:11Z</time>
</trkpt>
<trkpt lat="46.626370000" lon="-71.691140000">
<ele>0</ele>
<time>2026-09-04T06:30:12Z</time>
</trkpt>
<trkpt lat="46.626550000" lon="-71.690610000">
<ele>0</ele>
<time>2026-09-04T06:30:13Z</time>
</trkpt>
<trkpt lat="46.627020000" lon="-71.688850000">
<ele>0</ele>
<time>2026-09-04T06:30:14Z</time>
</trkpt>
<trkpt lat="46.627020000" lon="-71.688850000">
<ele>0</ele>
<time>2026-09-04T06:30:15Z</time>
</trkpt>
<trkpt lat="46.627240000" lon="-71.687900000">
<ele>0</ele>
<time>2026-09-04T06:30:16Z</time>
</trkpt>
<trkpt lat="46.627360000" lon="-71.687230000">
<ele>0</ele>
<time>2026-09-04T06:30:17Z</time>
</trkpt>
<trkpt lat="46.627460000" lon="-71.686420000">
<ele>0</ele>
<time>2026-09-04T06:30:18Z</time>
</trkpt>
<trkpt lat="46.627670000" lon="-71.683930000">
<ele>0</ele>
<time>2026-09-04T06:30:19Z</time>
</trkpt>
<trkpt lat="46.627820000" lon="-71.681470000">
<ele>0</ele>
<time>2026-09-04T06:30:20Z</time>
</trkpt>
<trkpt lat="46.627950000" lon="-71.680120000">
<ele>0</ele>
<time>2026-09-04T06:30:21Z</time>
</trkpt>
<trkpt lat="46.628070000" lon="-71.679120000">
<ele>0</ele>
<time>2026-09-04T06:30:22Z</time>
</trkpt>
<trkpt lat="46.628250000" lon="-71.678010000">
<ele>0</ele>
<time>2026-09-04T06:30:23Z</time>
</trkpt>
<trkpt lat="46.628540000" lon="-71.676550000">
<ele>0</ele>
<time>2026-09-04T06:30:24Z</time>
</trkpt>
<trkpt lat="46.629200000" lon="-71.673730000">
<ele>0</ele>
<time>2026-09-04T06:30:25Z</time>
</trkpt>
<trkpt lat="46.630370000" lon="-71.668820000">
<ele>0</ele>
<time>2026-09-04T06:30:26Z</time>
</trkpt>
<trkpt lat="46.630570000" lon="-71.667830000">
<ele>0</ele>
<time>2026-09-04T06:30:27Z</time>
</trkpt>
<trkpt lat="46.630640000" lon="-71.667250000">
<ele>0</ele>
<time>2026-09-04T06:30:28Z</time>
</trkpt>
<trkpt lat="46.630760000" lon="-71.662820000">
<ele>0</ele>
<time>2026-09-04T06:30:29Z</time>
</trkpt>
<trkpt lat="46.630860000" lon="-71.659150000">
<ele>0</ele>
<time>2026-09-04T06:30:30Z</time>
</trkpt>
<trkpt lat="46.630900000" lon="-71.657610000">
<ele>0</ele>
<time>2026-09-04T06:30:31Z</time>
</trkpt>
<trkpt lat="46.630890000" lon="-71.656400000">
<ele>0</ele>
<time>2026-09-04T06:30:32Z</time>
</trkpt>
<trkpt lat="46.630940000" lon="-71.655530000">
<ele>0</ele>
<time>2026-09-04T06:30:33Z</time>
</trkpt>
<trkpt lat="46.630970000" lon="-71.654370000">
<ele>0</ele>
<time>2026-09-04T06:30:34Z</time>
</trkpt>
<trkpt lat="46.631020000" lon="-71.653720000">
<ele>0</ele>
<time>2026-09-04T06:30:35Z</time>
</trkpt>
<trkpt lat="46.631090000" lon="-71.653250000">
<ele>0</ele>
<time>2026-09-04T06:30:36Z</time>
</trkpt>
<trkpt lat="46.631190000" lon="-71.652680000">
<ele>0</ele>
<time>2026-09-04T06:30:37Z</time>
</trkpt>
<trkpt lat="46.631280000" lon="-71.652250000">
<ele>0</ele>
<time>2026-09-04T06:30:38Z</time>
</trkpt>
<trkpt lat="46.631540000" lon="-71.651410000">
<ele>0</ele>
<time>2026-09-04T06:30:39Z</time>
</trkpt>
<trkpt lat="46.632080000" lon="-71.649790000">
<ele>0</ele>
<time>2026-09-04T06:30:40Z</time>
</trkpt>
<trkpt lat="46.632850000" lon="-71.647420000">
<ele>0</ele>
<time>2026-09-04T06:30:41Z</time>
</trkpt>
<trkpt lat="46.633450000" lon="-71.645520000">
<ele>0</ele>
<time>2026-09-04T06:30:42Z</time>
</trkpt>
<trkpt lat="46.633650000" lon="-71.644680000">
<ele>0</ele>
<time>2026-09-04T06:30:43Z</time>
</trkpt>
<trkpt lat="46.634150000" lon="-71.642410000">
<ele>0</ele>
<time>2026-09-04T06:30:44Z</time>
</trkpt>
<trkpt lat="46.634650000" lon="-71.640290000">
<ele>0</ele>
<time>2026-09-04T06:30:45Z</time>
</trkpt>
<trkpt lat="46.635050000" lon="-71.638570000">
<ele>0</ele>
<time>2026-09-04T06:30:46Z</time>
</trkpt>
<trkpt lat="46.635180000" lon="-71.637900000">
<ele>0</ele>
<time>2026-09-04T06:30:47Z</time>
</trkpt>
<trkpt lat="46.635240000" lon="-71.637490000">
<ele>0</ele>
<time>2026-09-04T06:30:48Z</time>
</trkpt>
<trkpt lat="46.635270000" lon="-71.637050000">
<ele>0</ele>
<time>2026-09-04T06:30:49Z</time>
</trkpt>
<trkpt lat="46.635290000" lon="-71.636550000">
<ele>0</ele>
<time>2026-09-04T06:30:50Z</time>
</trkpt>
<trkpt lat="46.635310000" lon="-71.635120000">
<ele>0</ele>
<time>2026-09-04T06:30:51Z</time>
</trkpt>
<trkpt lat="46.635350000" lon="-71.634650000">
<ele>0</ele>
<time>2026-09-04T06:30:52Z</time>
</trkpt>
<trkpt lat="46.635450000" lon="-71.634070000">
<ele>0</ele>
<time>2026-09-04T06:30:53Z</time>
</trkpt>
<trkpt lat="46.635550000" lon="-71.633720000">
<ele>0</ele>
<time>2026-09-04T06:30:54Z</time>
</trkpt>
<trkpt lat="46.635650000" lon="-71.633440000">
<ele>0</ele>
<time>2026-09-04T06:30:55Z</time>
</trkpt>
<trkpt lat="46.635790000" lon="-71.633140000">
<ele>0</ele>
<time>2026-09-04T06:30:56Z</time>
</trkpt>
<trkpt lat="46.636190000" lon="-71.632350000">
<ele>0</ele>
<time>2026-09-04T06:30:57Z</time>
</trkpt>
<trkpt lat="46.637050000" lon="-71.630690000">
<ele>0</ele>
<time>2026-09-04T06:30:58Z</time>
</trkpt>
<trkpt lat="46.637690000" lon="-71.629450000">
<ele>0</ele>
<time>2026-09-04T06:30:59Z</time>
</trkpt>
<trkpt lat="46.637990000" lon="-71.628910000">
<ele>0</ele>
<time>2026-09-04T06:31:00Z</time>
</trkpt>
<trkpt lat="46.638440000" lon="-71.628210000">
<ele>0</ele>
<time>2026-09-04T06:31:01Z</time>
</trkpt>
<trkpt lat="46.638880000" lon="-71.627590000">
<ele>0</ele>
<time>2026-09-04T06:31:02Z</time>
</trkpt>
<trkpt lat="46.639070000" lon="-71.627370000">
<ele>0</ele>
<time>2026-09-04T06:31:03Z</time>
</trkpt>
<trkpt lat="46.639070000" lon="-71.627370000">
<ele>0</ele>
<time>2026-09-04T06:31:04Z</time>
</trkpt>
<trkpt lat="46.641990000" lon="-71.623850000">
<ele>0</ele>
<time>2026-09-04T06:31:05Z</time>
</trkpt>
<trkpt lat="46.642730000" lon="-71.622950000">
<ele>0</ele>
<time>2026-09-04T06:31:06Z</time>
</trkpt>
<trkpt lat="46.643210000" lon="-71.622400000">
<ele>0</ele>
<time>2026-09-04T06:31:07Z</time>
</trkpt>
<trkpt lat="46.643420000" lon="-71.622200000">
<ele>0</ele>
<time>2026-09-04T06:31:08Z</time>
</trkpt>
<trkpt lat="46.643780000" lon="-71.621920000">
<ele>0</ele>
<time>2026-09-04T06:31:09Z</time>
</trkpt>
<trkpt lat="46.644300000" lon="-71.621580000">
<ele>0</ele>
<time>2026-09-04T06:31:10Z</time>
</trkpt>
<trkpt lat="46.645220000" lon="-71.621060000">
<ele>0</ele>
<time>2026-09-04T06:31:11Z</time>
</trkpt>
<trkpt lat="46.645640000" lon="-71.620730000">
<ele>0</ele>
<time>2026-09-04T06:31:12Z</time>
</trkpt>
<trkpt lat="46.646100000" lon="-71.620320000">
<ele>0</ele>
<time>2026-09-04T06:31:13Z</time>
</trkpt>
<trkpt lat="46.646450000" lon="-71.619950000">
<ele>0</ele>
<time>2026-09-04T06:31:14Z</time>
</trkpt>
<trkpt lat="46.646980000" lon="-71.619350000">
<ele>0</ele>
<time>2026-09-04T06:31:15Z</time>
</trkpt>
<trkpt lat="46.647720000" lon="-71.618450000">
<ele>0</ele>
<time>2026-09-04T06:31:16Z</time>
</trkpt>
<trkpt lat="46.648350000" lon="-71.617720000">
<ele>0</ele>
<time>2026-09-04T06:31:17Z</time>
</trkpt>
<trkpt lat="46.648740000" lon="-71.617250000">
<ele>0</ele>
<time>2026-09-04T06:31:18Z</time>
</trkpt>
<trkpt lat="46.649120000" lon="-71.616680000">
<ele>0</ele>
<time>2026-09-04T06:31:19Z</time>
</trkpt>
<trkpt lat="46.649850000" lon="-71.615430000">
<ele>0</ele>
<time>2026-09-04T06:31:20Z</time>
</trkpt>
<trkpt lat="46.650550000" lon="-71.614230000">
<ele>0</ele>
<time>2026-09-04T06:31:21Z</time>
</trkpt>
</trkseg>
</trk>
</gpx>
